Terminal Aerodrome Forecast
Issued by NWS

Home | Current Version | Previous Version | Text Only | Print | Product List | Glossary On
Versions: 1 2 3 4 5 6 7 8 9 10 11 12 13 14 15
000
FTUS43 KMPX 232300 RRA
TAFRWF
TAF
KRWF 232351Z 2400/2424 13020G30KT P6SM SCT015 OVC050
     FM240600 12013KT 6SM -RA BR SCT007 OVC015
     FM240900 10009KT 3SM -RA BR SCT006 OVC012
      TEMPO 2410/2414 2SM -RA BR BKN006
     FM241600 36009KT 5SM -RA BR SCT008 BKN015
     FM241800 32011KT P6SM SCT015 BKN050=

USA.gov is the U.S. government's official web portal to all federal, state and local government web resources and services.